METAR Data
IDs: Format: Raw Decoded Include TAF

Data at: 1940 UTC 31 Jan 2023

KAUS 311932Z 35014KT 7SM OVC010 M01/M01 A3029 RMK AO2 T10061011